AST,Max TemperatureF,Mean TemperatureF,Min TemperatureF,Max Dew PointF,MeanDew PointF,Min DewpointF,Max Humidity, Mean Humidity, Min Humidity, Max Sea Level PressureIn, Mean Sea Level PressureIn, Min Sea Level PressureIn, Max VisibilityMiles, Mean VisibilityMiles, Min VisibilityMiles, Max Wind SpeedMPH, Mean Wind SpeedMPH, Max Gust SpeedMPH,PrecipitationIn, CloudCover, Events, WindDirDegrees
2013-4-1,84,80,76,72,70,68,78,70,56,30.14,30.07,30.04,19,7,6,18,14,30,0.00,3,Rain,104
2013-4-2,83,80,77,72,70,68,78,71,56,30.09,30.05,29.98,19,8,6,20,14,28,0.00,1,Rain,127
2013-4-3,84,81,78,72,71,70,78,72,57,30.12,30.05,30.01,19,8,6,14,11,,0.00,3,,119
2013-4-4,85,81,77,70,69,64,78,67,46,30.12,30.06,30.01,11,6,6,18,12,,0.00,3,,92
2013-4-5,85,81,77,75,70,68,89,72,54,30.08,30.03,29.98,6,6,6,15,11,,0.12,4,Rain,106
2013-4-6,84,80,77,73,72,71,83,74,57,30.09,30.03,29.98,19,7,6,15,12,,0.00,3,Rain,123
2013-4-7,84,81,78,75,72,72,84,76,60,30.09,30.03,29.95,16,6,2,18,10,,0.08,4,Rain,128
2013-4-8,84,81,78,73,71,70,83,73,59,30.08,30.02,29.98,6,6,5,15,10,,0.12,4,Rain,101
2013-4-9,85,80,75,73,71,68,83,72,61,30.09,30.03,29.98,19,7,3,15,9,28,0.20,3,Rain,96
2013-4-10,84,80,75,70,68,66,78,66,49,30.05,30.01,29.98,6,6,6,17,11,,0.08,2,Rain,94
2013-4-11,85,81,77,70,67,64,74,62,44,30.05,30.00,29.95,6,6,6,17,12,,0.16,2,,102
2013-4-12,86,80,75,70,69,66,78,67,46,30.04,30.00,29.95,19,7,6,16,12,,0.16,2,Rain,98
2013-4-13,84,80,77,72,70,36,78,70,19,30.04,30.00,29.95,19,7,6,17,12,,0.00,3,Rain,104
2013-4-14,85,82,78,72,70,66,78,68,53,30.05,30.01,29.98,16,7,6,16,13,,0.01,3,Rain,104
2013-4-15,85,81,77,72,70,68,78,68,47,30.08,30.03,29.98,19,7,1,89,15,,0.00,4,Rain,100
2013-4-16,84,79,74,72,70,67,83,72,58,30.06,30.02,29.95,19,8,6,16,10,,0.01,4,Rain,94
2013-4-17,85,80,75,70,68,64,78,67,46,30.03,29.99,29.95,19,8,6,18,12,,0.00,4,Rain,107
2013-4-18,84,80,76,70,68,66,78,67,53,30.06,30.01,29.98,19,8,6,23,14,,0.16,4,Rain,90
2013-4-19,84,79,74,70,69,68,83,70,54,30.09,30.04,29.98,19,7,6,25,18,25,0.16,4,Rain,84
2013-4-20,83,80,77,70,68,65,78,66,45,30.09,30.04,30.01,19,8,6,24,17,41,0.00,3,Rain,89
2013-4-21,84,80,76,66,64,61,69,58,41,30.07,30.03,29.98,19,8,6,20,15,,0.00,2,,81
2013-4-22,84,80,75,67,65,63,73,61,46,30.04,29.99,29.95,19,7,6,15,12,,0.00,2,Rain,85
2013-4-23,84,80,75,68,67,64,69,64,45,30.04,29.99,29.95,19,7,6,16,12,,0.00,2,Rain,98
2013-4-24,83,80,77,70,68,66,74,66,47,30.04,29.99,29.95,19,7,6,15,11,,0.00,1,,110
2013-4-25,84,80,75,70,68,66,83,67,52,30.04,30.00,29.95,9,6,6,12,9,,0.02,2,Rain,102
2013-4-26,85,80,76,70,69,68,78,67,50,30.02,29.99,29.95,19,8,6,12,7,,0.00,2,Tornado,103
2013-4-27,85,81,77,70,69,68,78,68,54,30.01,29.96,29.92,19,7,6,10,9,23,0.00,3,Tornado,103
2013-4-28,85,80,76,70,69,66,78,67,46,30.01,29.96,29.92,19,7,6,10,7,,0.00,2,Rain,95
2013-4-29,87,82,77,72,70,70,83,69,50,30.01,29.96,29.92,6,6,6,15,9,,0.00,3,Rain,95
2013-4-30,86,82,77,73,71,70,79,71,54,30.03,29.99,29.95,6,6,6,17,10,,0.00,4,Rain,93